Latest Weather Observations for Combienbar

IDV60801

Issued at 10:32 am EST Wednesday 29 July 2015 (issued every 30 minutes, with the page automatically refreshed every 10 minutes)

About weather observations | Map of weather stations | Latest weather observations for VIC | Other Formats
Station Details ID: 084143 Name: COMBIENBAR AWS Lat: -37.34 Lon: 149.02 Height: 640.0 m
Data from the previous 72 hours. | See also: Recent months at Combienbar
Date/Time
EST
Temp
°C
App
Temp
°C
Dew
Point
Rel
Hum
%
Delta-T
°C
Wind Press
QNH
hPa
Press
MSL
hPa
Rain
since 9 am
mm
Dir
 
Spd
km/h
Gust
km/h
Spd
kts
Gust
kts
29/10:30am 11.0 9.4 4.7 65 2.9 NNE 2 6 1 3 1032.4 1033.2 0.0
29/10:00am 9.8 8.6 4.4 69 2.5 CALM 0 4 0 2 1032.5 1033.3 0.0
29/09:30am 8.8 7.0 3.6 70 2.3 NNE 2 6 1 3 1032.7 1033.5 0.0
29/09:00am 6.7 5.1 2.6 75 1.7 CALM 0 2 0 1 1033.2 1033.9 0.2
29/08:30am 5.6 3.9 1.9 77 1.6 CALM 0 0 0 0 1033.2 1033.9 0.2
29/08:00am 4.9 3.2 1.6 79 1.3 CALM 0 0 0 0 1033.1 1033.8 0.2
29/07:30am 4.8 2.6 0.9 76 1.6 WNW 2 6 1 3 1033.1 1033.8 0.2
29/07:00am 4.5 2.7 1.0 78 1.4 CALM 0 4 0 2 1032.6 1033.4 0.2
29/06:30am 5.0 3.2 1.1 76 1.6 CALM 0 2 0 1 1032.2 1033.0 0.2
29/06:00am 4.6 2.8 0.9 77 1.5 CALM 0 6 0 3 1032.1 1032.8 0.2
29/05:30am 4.8 2.3 1.5 79 1.4 WNW 4 9 2 5 1032.1 1032.8 0.2
29/05:00am 4.6 2.5 1.6 81 1.2 W 2 9 1 5 1031.8 1032.5 0.2
29/04:30am 4.5 2.0 1.7 82 1.2 WSW 4 7 2 4 1031.9 1032.6 0.2
29/04:00am 4.3 2.2 1.8 84 1.0 SW 2 6 1 3 1031.9 1032.6 0.2
29/03:30am 4.6 2.6 2.1 84 1.0 SW 2 6 1 3 1032.1 1032.8 0.2
29/03:00am 4.7 2.3 2.2 84 1.0 SW 4 13 2 7 1032.1 1032.8 0.2
29/02:30am 4.3 1.9 2.3 87 0.8 SW 4 7 2 4 1032.3 1033.1 0.2
29/02:00am 4.4 2.0 2.4 87 0.8 SW 4 6 2 3 1032.6 1033.4 0.2
29/01:30am 4.5 2.1 2.0 84 1.0 SW 4 7 2 4 1032.7 1033.5 0.2
29/01:00am 4.8 2.1 2.5 85 1.0 SW 6 9 3 5 1032.9 1033.6 0.2
29/12:30am 4.8 2.4 2.2 83 1.1 SW 4 13 2 7 1032.9 1033.6 0.2
29/12:00am 5.0 2.3 2.4 83 1.1 SW 6 15 3 8 1032.9 1033.6 0.2
 
Date/Time
EST
Temp
°C
App
Temp
°C
Dew
Point
Rel
Hum
%
Delta-T
°C
Wind Press
QNH
hPa
Press
MSL
hPa
Rain
since 9 am
mm
Dir
 
Spd
km/h
Gust
km/h
Spd
kts
Gust
kts
28/11:30pm 5.0 2.9 2.0 81 1.3 SSW 2 4 1 2 1033.1 1033.8 0.2
28/11:00pm 5.3 2.5 2.3 81 1.3 SW 6 13 3 7 1032.9 1033.6 0.2
28/10:30pm 5.1 3.1 2.5 83 1.1 SSW 2 9 1 5 1032.6 1033.4 0.2
28/10:00pm 5.5 3.2 2.8 83 1.1 SW 4 13 2 7 1032.7 1033.5 0.2
28/09:30pm 5.7 2.9 2.9 82 1.2 SW 7 13 4 7 1032.7 1033.5 0.2
28/09:00pm 6.0 3.3 2.8 80 1.4 SW 6 11 3 6 1032.7 1033.5 0.2
28/08:30pm 6.1 3.8 2.9 80 1.4 SW 4 11 2 6 1032.9 1033.6 0.2
28/08:00pm 6.1 3.8 2.9 80 1.4 SW 4 6 2 3 1032.7 1033.5 0.2
28/07:30pm 6.0 3.7 2.8 80 1.4 SW 4 9 2 5 1032.3 1033.1 0.2
28/07:00pm 6.1 3.4 2.7 79 1.4 SSW 6 11 3 6 1032.1 1032.8 0.2
28/06:30pm 6.2 3.9 2.8 79 1.5 SW 4 7 2 4 1031.9 1032.6 0.2
28/06:00pm 6.6 4.0 3.0 78 1.5 SW 6 13 3 7 1031.7 1032.4 0.2
28/05:30pm 6.9 4.4 3.7 80 1.4 SW 6 15 3 8 1031.5 1032.2 0.2
28/05:00pm 6.7 4.7 4.2 84 1.1 SW 4 9 2 5 1031.2 1031.9 0.2
28/04:30pm 7.2 5.9 4.2 81 1.3 CALM 0 6 0 3 1031.0 1031.8 0.2
28/04:00pm 7.4 5.3 3.8 78 1.6 SW 4 9 2 5 1030.8 1031.6 0.2
28/03:30pm 7.8 5.3 3.8 76 1.8 SSW 6 13 3 7 1030.6 1031.3 0.2
28/03:00pm 7.8 5.8 4.2 78 1.6 SW 4 9 2 5 1030.6 1031.3 0.2
28/02:30pm 8.4 6.0 4.2 75 1.9 SW 6 17 3 9 1030.4 1031.1 0.2
28/02:00pm 7.8 5.4 4.4 79 1.5 SW 6 11 3 6 1030.3 1031.0 0.2
28/01:30pm 7.9 5.6 4.8 81 1.4 SW 6 19 3 10 1030.5 1031.2 0.2
28/01:00pm 8.6 6.6 6.1 84 1.2 SW 6 13 3 7 1030.8 1031.6 0.2
28/12:30pm 8.1 5.7 4.3 77 1.7 SW 6 11 3 6 1030.8 1031.6 0.0
28/12:00pm 7.2 5.2 4.2 81 1.3 SW 4 9 2 5 1031.3 1032.0 0.0
28/11:30am 7.2 5.3 5.0 86 1.0 SW 4 9 2 5 1031.6 1032.3 0.0
28/11:00am 7.2 5.4 5.2 87 0.9 SW 4 13 2 7 1031.8 1032.5 0.0
28/10:30am 7.5 5.2 5.0 84 1.1 SW 6 15 3 8 1031.7 1032.4 0.0
28/10:00am 7.2 4.7 4.5 83 1.2 SW 7 17 4 9 1031.4 1032.1 0.0
28/09:30am 6.9 3.5 4.0 82 1.3 SW 11 24 6 13 1031.2 1031.9 0.0
28/09:00am 6.7 3.7 4.2 84 1.1 SW 9 15 5 8 1031.0 1031.8 0.0
28/08:30am 6.5 3.5 4.0 84 1.1 SW 9 20 5 11 1030.9 1031.7 0.0
28/08:00am 6.4 3.4 3.9 84 1.1 SW 9 17 5 9 1030.6 1031.3 0.0
28/07:30am 6.2 3.1 3.7 84 1.1 SW 9 19 5 10 1030.1 1030.8 0.0
28/07:00am 6.2 3.1 3.7 84 1.1 SW 9 17 5 9 1029.7 1030.4 0.0
28/06:30am 6.0 2.5 3.3 83 1.2 SW 11 19 6 10 1029.2 1029.9 0.0
28/06:00am 6.0 3.3 3.5 84 1.1 SW 7 13 4 7 1028.9 1029.6 0.0
28/05:30am 6.0 3.2 3.3 83 1.2 SW 7 13 4 7 1028.5 1029.2 0.0
28/05:00am 5.8 2.6 3.3 84 1.1 SW 9 22 5 12 1028.0 1028.6 0.0
28/04:30am 5.7 1.8 3.2 84 1.1 SW 13 22 7 12 1027.7 1028.4 0.0
28/04:00am 6.0 2.3 2.6 79 1.4 SW 11 22 6 12 1027.5 1028.2 0.0
28/03:30am 5.7 2.4 2.7 81 1.3 SSW 9 17 5 9 1027.3 1028.0 0.0
28/03:00am 5.8 2.4 2.1 77 1.5 SW 9 19 5 10 1027.1 1027.8 0.0
28/02:30am 5.7 2.0 2.2 78 1.5 SW 11 24 6 13 1027.1 1027.8 0.0
28/02:00am 5.7 2.3 1.6 75 1.7 SW 9 17 5 9 1026.9 1027.6 0.0
28/01:30am 5.8 1.9 1.3 73 1.9 SW 11 20 6 11 1026.8 1027.4 0.0
28/01:00am 5.8 1.9 1.3 73 1.8 SW 11 19 6 10 1026.8 1027.4 0.0
28/12:30am 5.9 2.0 0.9 70 2.1 SW 11 24 6 13 1026.9 1027.6 0.0
28/12:00am 6.1 1.8 1.1 70 2.1 SW 13 24 7 13 1026.6 1027.2 0.0
 
Date/Time
EST
Temp
°C
App
Temp
°C
Dew
Point
Rel
Hum
%
Delta-T
°C
Wind Press
QNH
hPa
Press
MSL
hPa
Rain
since 9 am
mm
Dir
 
Spd
km/h
Gust
km/h
Spd
kts
Gust
kts
27/11:30pm 6.1 1.8 1.1 70 2.1 SW 13 41 7 22 1026.8 1027.4 0.0
27/11:00pm 6.1 1.8 1.2 71 2.0 SW 13 30 7 16 1026.9 1027.6 0.0
27/10:30pm 6.1 2.2 1.1 70 2.1 SW 11 20 6 11 1026.8 1027.4 0.0
27/10:00pm 6.0 2.1 1.3 72 1.9 SW 11 22 6 12 1026.4 1027.0 0.0
27/09:30pm 5.9 2.4 1.4 73 1.9 SW 9 20 5 11 1026.5 1027.1 0.0
27/09:00pm 5.7 2.3 1.6 75 1.7 SSW 9 26 5 14 1026.4 1027.0 0.0
27/08:30pm 5.9 1.7 1.4 73 1.9 SW 13 24 7 13 1026.0 1026.7 0.0
27/08:00pm 6.0 1.4 1.3 72 1.9 SW 15 28 8 15 1025.9 1026.6 0.0
27/07:30pm 6.0 2.1 1.3 72 1.9 SW 11 28 6 15 1025.6 1026.3 0.0
27/07:00pm 6.0 1.3 1.0 70 2.0 SW 15 32 8 17 1025.5 1026.2 0.0
27/06:30pm 6.0 1.7 1.3 72 1.9 SW 13 35 7 19 1025.0 1025.6 0.0
27/06:00pm 5.9 1.7 1.6 74 1.8 SW 13 24 7 13 1024.9 1025.5 0.0
27/05:30pm 5.9 2.4 1.1 71 2.0 SW 9 20 5 11 1024.2 1024.9 0.0
27/05:00pm 5.8 1.9 1.0 71 2.0 SW 11 22 6 12 1024.0 1024.6 0.0
27/04:30pm 6.0 2.4 0.6 68 2.2 SW 9 15 5 8 1023.6 1024.2 0.0
27/04:00pm 6.3 2.2 0.0 64 2.5 SW 11 19 6 10 1023.2 1023.8 0.0
27/03:30pm 7.0 3.0 0.2 62 2.8 SW 11 24 6 13 1023.0 1023.6 0.0
27/03:00pm 7.9 4.3 0.9 61 2.9 SW 9 22 5 12 1023.0 1023.6 0.0
27/02:30pm 6.7 3.4 0.4 64 2.6 SW 7 20 4 11 1022.6 1023.2 0.0
27/02:00pm 7.6 4.0 0.6 61 2.9 SW 9 15 5 8 1022.3 1022.9 0.0
27/01:30pm 7.2 3.6 0.4 62 2.8 SW 9 28 5 15 1022.1 1022.7 0.0
27/01:00pm 7.1 3.2 1.0 65 2.5 SW 11 24 6 13 1022.3 1022.9 0.0
27/12:30pm 6.5 2.2 0.8 67 2.3 SW 13 20 7 11 1022.6 1023.2 0.0
27/12:00pm 6.2 2.3 0.9 69 2.2 SW 11 19 6 10 1022.6 1023.2 0.0
27/11:30am 5.1 0.8 1.2 76 1.6 SW 13 22 7 12 1022.9 1023.5 0.0
27/11:00am 4.6 0.3 0.9 77 1.5 SW 13 24 7 13 1023.1 1023.7 0.0
27/10:30am 5.2 0.8 0.2 70 2.0 SW 13 26 7 14 1022.6 1023.2 0.0
27/10:00am 4.9 -0.4 -0.3 69 2.0 SW 17 26 9 14 1021.9 1022.5 0.0
27/09:30am 4.7 -0.2 -0.7 68 2.1 SW 15 24 8 13 1021.7 1022.3 0.0
27/09:00am 4.4 -0.5 -0.8 69 2.0 SW 15 33 8 18 1021.0 1021.6 0.4
27/08:30am 4.2 -0.4 -1.0 69 2.0 SW 13 24 7 13 1020.9 1021.5 0.4
27/08:00am 4.0 -1.4 -1.6 67 2.1 SW 17 41 9 22 1020.4 1021.0 0.4
27/07:30am 3.9 -0.8 -1.9 66 2.2 SW 13 28 7 15 1019.6 1020.1 0.4
27/07:00am 3.8 -1.7 -2.0 66 2.2 SW 17 37 9 20 1018.9 1019.5 0.4
27/06:30am 3.8 -1.3 -2.2 65 2.2 SW 15 30 8 16 1018.5 1019.0 0.4
27/06:00am 3.9 -2.2 -2.7 62 2.4 SW 20 35 11 19 1018.0 1018.5 0.4
27/05:30am 3.8 -1.4 -2.6 63 2.3 SW 15 26 8 14 1017.6 1018.2 0.4
27/05:00am 3.8 -1.4 -2.6 63 2.3 SW 15 24 8 13 1017.6 1018.2 0.4
27/04:30am 4.0 -1.6 -2.8 61 2.5 SW 17 30 9 16 1017.3 1017.8 0.4
27/04:00am 4.0 -0.9 -3.0 60 2.5 SW 13 24 7 13 1017.2 1017.7 0.4
27/03:30am 4.2 -0.7 -3.1 59 2.7 SW 13 24 7 13 1017.2 1017.7 0.4
27/03:00am 4.4 -0.9 -3.6 56 2.9 SW 15 28 8 15 1017.0 1017.5 0.4
27/02:30am 4.3 -1.0 -3.7 56 2.9 SW 15 35 8 19 1016.7 1017.2 0.4
27/02:00am 4.4 -1.0 -4.1 54 3.0 SW 15 37 8 20 1016.7 1017.2 0.4
27/01:30am 4.5 -0.5 -4.2 53 3.1 SW 13 26 7 14 1016.2 1016.6 0.4
27/01:00am 4.0 -0.6 -4.0 56 2.8 SW 11 26 6 14 1016.3 1016.8 0.4
27/12:30am 4.3 -0.7 -3.9 55 2.9 SW 13 26 7 14 1016.3 1016.8 0.4
27/12:00am 4.3 -0.3 -3.9 55 2.9 SW 11 37 6 20 1015.8 1016.3 0.4
 
Date/Time
EST
Temp
°C
App
Temp
°C
Dew
Point
Rel
Hum
%
Delta-T
°C
Wind Press
QNH
hPa
Press
MSL
hPa
Rain
since 9 am
mm
Dir
 
Spd
km/h
Gust
km/h
Spd
kts
Gust
kts
26/11:30pm 4.3 -0.7 -3.9 55 2.9 SW 13 35 7 19 1015.5 1016.0 0.4
26/11:00pm 4.2 -0.8 -4.3 54 3.0 SW 13 26 7 14 1015.1 1015.6 0.4
26/10:30pm 4.1 -1.3 -4.4 54 3.0 SW 15 28 8 15 1014.8 1015.2 0.4
26/10:00pm 4.4 -0.6 -4.6 52 3.2 SW 13 22 7 12 1014.7 1015.1 0.4
26/09:30pm 4.4 -0.3 -4.8 51 3.2 SW 11 28 6 15 1014.2 1014.7 0.4
26/09:00pm 4.1 -0.6 -4.9 52 3.1 SW 11 24 6 13 1013.7 1014.2 0.4
26/08:30pm 4.2 -0.9 -5.0 51 3.2 SW 13 35 7 19 1013.6 1014.1 0.4
26/08:00pm 4.3 0.0 -4.7 52 3.1 SW 9 20 5 11 1014.0 1014.5 0.4
26/07:30pm 4.3 0.5 -3.4 57 2.8 WSW 7 20 4 11 1013.7 1014.2 0.4
26/07:00pm 4.4 0.7 -3.1 58 2.7 SW 7 22 4 12 1013.4 1013.8 0.4
26/06:30pm 4.6 0.9 -2.5 60 2.6 SW 7 28 4 15 1013.2 1013.6 0.4
26/06:00pm 4.8 1.1 -2.5 59 2.7 SW 7 20 4 11 1012.4 1012.9 0.4
26/05:30pm 4.9 0.9 -2.2 60 2.7 SW 9 15 5 8 1012.0 1012.4 0.4
26/05:00pm 5.2 1.7 -1.7 61 2.6 SW 7 17 4 9 1011.4 1011.8 0.4
26/04:30pm 4.9 1.7 -0.3 69 2.0 SW 6 17 3 9 1011.0 1011.5 0.4
26/04:00pm 6.5 2.6 -1.4 57 3.1 SW 9 20 5 11 1010.9 1011.4 0.4
26/03:30pm 7.0 3.6 -1.9 53 3.4 SW 6 17 3 9 1010.4 1010.8 0.4
26/03:00pm 8.0 4.4 -2.3 48 4.0 SW 7 33 4 18 1009.8 1010.2 0.4
26/02:30pm 8.8 5.2 -1.9 47 4.2 SW 7 32 4 17 1009.7 1010.1 0.4
26/02:00pm 8.8 4.9 -1.3 49 4.1 W 9 22 5 12 1009.2 1009.6 0.4
26/01:30pm 7.5 3.0 -0.2 58 3.1 SW 13 30 7 16 1009.0 1009.4 0.4
26/01:00pm 10.1 5.8 -1.3 45 4.6 WSW 11 32 6 17 1008.6 1009.0 0.4
26/12:30pm 9.8 7.0 2.9 62 3.1 W 7 20 4 11 1008.6 1009.0 0.2
26/12:00pm 9.1 6.8 4.9 75 2.0 NW 6 15 3 8 1008.9 1009.3 0.2
26/11:30am 7.7 5.6 5.7 87 0.9 SW 6 13 3 7 1009.8 1010.2 0.2
26/11:00am 12.0 9.5 3.8 57 3.8 W 6 19 3 10 1009.0 1009.4 0.0

Other Formats:

Comma delimited format used in spreadsheet applications
http://www.bom.gov.au/fwo/IDV60801/IDV60801.94914.axf

JavaScript Object Notation format (JSON) in row-major order
http://www.bom.gov.au/fwo/IDV60801/IDV60801.94914.json